• Join FlightAware (Why Join?)
  • Login
  • US Flag 
02:43AM EDT


 

Airport Tracker/Info


-or-


 

Live Flight TrackerFlight Track Log ✈ DAL42 ✈ 19-Jun-2013 ✈ KATL - LFPG / CDG

Flight Track Log - Related Links

Times and Time Zones

All times are in EDT time to prevent confusion due to time zone crossing. See the DAL42 flight status page for this flight to view local times or setup timezone preferences in your user account.

Time Position Orientation Groundspeed Altitude Reporting Facility
EDT Latitude Longitude Course Direction KTS MPH feet Rate Location/Type
11:25PM 33.6333 -84.3667 53° Northeast 194 223 3,000  Level Atlanta TRACON
11:26PM 33.6333 -84.2667 90° East 244 281 5,500 2,280 Climbing Atlanta TRACON
11:27PM 33.6500 -84.2000 73° East 267 307 7,600 2,220 Climbing Atlanta TRACON
11:28PM 33.8556 -83.8019 54° Northeast  Level FlightAware Approximate
11:28PM 33.7067 -84.1036 55° Northeast 299 344 10,700  Level Atlanta Center
11:29PM 33.9457 -83.6702 53° Northeast  Level FlightAware Approximate
11:29PM 33.7547 -84.0139 57° Northeast 314 361 11,900  Level Atlanta Center
11:30PM 34.0308 -83.5335 53° Northeast  Level FlightAware Approximate
11:30PM 33.8192 -83.9039 55° Northeast 347 399 13,500  Level Atlanta Center
11:31PM 33.8836 -83.7936 55° Northeast 384 442 15,700 2,100 Climbing Atlanta Center
11:32PM 33.9481 -83.6806 55° Northeast 396 456 17,800 1,800 Climbing Atlanta Center
11:33PM 34.0231 -83.5675 51° Northeast 408 470 19,400 1,620 Climbing Atlanta Center
11:34PM 34.0956 -83.4517 53° Northeast 423 487 21,100 1,560 Climbing Atlanta Center
11:35PM 34.1700 -83.3283 54° Northeast 438 504 22,600 1,500 Climbing Atlanta Center
11:36PM 34.2464 -83.2069 53° Northeast 454 522 24,100 1,380 Climbing Atlanta Center
11:37PM 34.3269 -83.0781 53° Northeast 467 537 25,400 1,200 Climbing Atlanta Center
11:38PM 34.4050 -82.9486 54° Northeast 479 551 26,600 1,500 Climbing Atlanta Center
11:39PM 34.4875 -82.8192 52° Northeast 484 557 28,400 1,620 Climbing Atlanta Center
11:40PM 34.5653 -82.6892 54° Northeast 474 545 29,900 1,140 Climbing Atlanta Center
11:41PM 34.6392 -82.5769 51° Northeast 474 545 30,700 540 Climbing Atlanta Center
11:42PM 34.7189 -82.4492 53° Northeast 474 545 31,000 120 Climbing Atlanta Center
11:43PM 34.7986 -82.3136 54° Northeast 480 552 31,000  Level Atlanta Center
11:44PM 34.8781 -82.1803 54° Northeast 485 558 31,000  Level Atlanta Center
11:45PM 34.9614 -82.0542 51° Northeast 480 552 31,000  Level Atlanta Center
11:46PM 35.0386 -81.9181 55° Northeast 486 559 31,000  Level Atlanta Center
11:47PM 35.1194 -81.7686 56° Northeast 486 559 31,000  Level Atlanta Center
11:48PM 35.1917 -81.6269 58° Northeast 481 554 31,000  Level Atlanta Center
11:49PM 35.2642 -81.4900 57° Northeast 486 559 31,000  Level Atlanta Center
11:50PM 35.3383 -81.3503 57° Northeast 486 559 31,000  Level Atlanta Center
11:51PM 35.4167 -81.2125 55° Northeast 486 559 31,000  Level Atlanta Center
11:52PM 35.5117 -81.0894 46° Northeast 486 559 31,000  Level Atlanta Center
11:53PM 35.6131 -80.9658 45° Northeast 499 574 31,000  Level Atlanta Center
11:54PM 35.7081 -80.8469 45° Northeast 499 574 31,000  Level Atlanta Center
11:57PM 35.9142 -80.5828 46° Northeast 503 579 31,000  Level Washington Center
11:58PM 36.0067 -80.4628 46° Northeast 496 571 31,000  Level Washington Center
11:59PM 36.1017 -80.3378 47° Northeast 496 571 31,000  Level Washington Center
12:00AM 36.1939 -80.2172 47° Northeast 491 565 31,000  Level Washington Center
12:01AM 36.2817 -80.1039 46° Northeast 491 565 31,000  Level Washington Center
12:02AM 36.3717 -79.9850 47° Northeast 484 557 31,000  Level Washington Center
12:03AM 36.4636 -79.8639 47° Northeast 484 557 31,000  Level Washington Center
12:04AM 36.5578 -79.7422 46° Northeast 479 551 31,000  Level Washington Center
12:05AM 36.6606 -79.6028 47° Northeast 484 557 31,000  Level Washington Center
12:06AM 36.7544 -79.4781 47° Northeast 484 557 31,000  Level Washington Center
12:07AM 36.8461 -79.3528 48° Northeast 484 557 31,000  Level Washington Center
12:08AM 36.9394 -79.2300 46° Northeast 478 550 31,000  Level Washington Center
12:09AM 37.0222 -79.1142 48° Northeast 478 550 31,000  Level Washington Center
12:10AM 37.1156 -78.9908 46° Northeast 478 550 31,000  Level Washington Center
12:11AM 37.2194 -78.8519 47° Northeast 484 557 31,000  Level Washington Center
12:12AM 37.3125 -78.7256 47° Northeast 484 557 31,000  Level Washington Center
12:13AM 37.4056 -78.5986 47° Northeast 484 557 31,000  Level Washington Center
12:14AM 37.4964 -78.4739 47° Northeast 484 557 31,000  Level Washington Center
12:15AM 37.5803 -78.3592 47° Northeast 484 557 31,000  Level Washington Center
12:16AM 37.6728 -78.2311 48° Northeast 484 557 31,000  Level Washington Center
12:17AM 37.7697 -78.0928 48° Northeast 484 557 31,000  Level Washington Center
12:18AM 37.8619 -77.9617 48° Northeast 484 557 31,000  Level Washington Center
12:19AM 37.9519 -77.8356 48° Northeast 479 551 31,000  Level Washington Center
12:20AM 38.0314 -77.7244 48° Northeast 472 543 31,000  Level Washington Center
12:21AM 38.1211 -77.5978 48° Northeast 472 543 31,000  Level Washington Center
12:22AM 38.2128 -77.4706 47° Northeast 477 549 31,000  Level Washington Center
12:23AM 38.3022 -77.3381 49° Northeast 483 556 31,000  Level Washington Center
12:24AM 38.3917 -77.2103 48° Northeast 483 556 31,000  Level Washington Center
12:25AM 38.4808 -77.0794 49° Northeast 478 550 31,000  Level Washington Center
12:26AM 38.5722 -76.9514 48° Northeast 478 550 31,000  Level Washington Center
12:27AM 38.6589 -76.8200 50° Northeast 478 550 31,000  Level Washington Center
12:28AM 38.7500 -76.6911 48° Northeast 478 550 31,000  Level Washington Center
12:29AM 38.8492 -76.5458 49° Northeast 485 558 31,000  Level Washington Center
12:30AM 38.9397 -76.4136 49° Northeast 485 558 31,000  Level Washington Center
12:31AM 39.0281 -76.2783 50° Northeast 480 552 31,000 -60 Level Washington Center
12:32AM 39.1100 -76.1586 49° Northeast 480 552 30,900  Descending Washington Center
12:33AM 39.1794 -76.0014 60° Northeast 493 567 31,000  Climbing Washington Center
12:34AM 39.2444 -75.8408 62° Northeast 499 574 31,000  Level Washington Center
12:35AM 39.3114 -75.6856 61° Northeast 499 574 31,000  Level Washington Center
12:36AM 39.3822 -75.5244 60° Northeast 499 574 31,000  Level Washington Center
12:37AM 39.4486 -75.3658 62° Northeast 499 574 31,000  Level Washington Center
12:38AM 39.5169 -75.2069 61° Northeast 499 574 31,000  Level Washington Center
12:39AM 39.5914 -75.0261 62° Northeast 501 577 31,000  Level Washington Center
12:40AM 39.6511 -74.8800 62° Northeast 501 577 31,000  Level Washington Center
12:41AM 39.7247 -74.7011 62° Northeast 506 582 31,000  Level Washington Center
12:42AM 39.8428 -74.4181 61° Northeast 514 592 31,000  Level Boston Center
12:43AM 39.9122 -74.2550 61° Northeast 509 586 31,000  Level Boston Center
12:44AM 39.9772 -74.0917 63° Northeast 509 586 31,000  Level Boston Center
12:45AM 40.0564 -73.9336 57° Northeast 509 586 31,000  Level Boston Center
12:46AM 40.1356 -73.7836 55° Northeast 509 586 31,000  Level Boston Center
12:47AM 40.2183 -73.6331 54° Northeast 504 580 31,000  Level Boston Center
12:48AM 40.2992 -73.4847 54° Northeast 504 580 31,000  Level Boston Center
12:49AM 40.3817 -73.3336 54° Northeast 509 586 31,000  Level Boston Center
12:50AM 40.4619 -73.1792 56° Northeast 509 586 31,000 60 Level Boston Center
12:51AM 40.5442 -73.0272 55° Northeast 509 586 31,200 600 Climbing Boston Center
12:52AM 40.6281 -72.8747 54° Northeast 515 593 32,300 900 Climbing Boston Center
12:53AM 40.7119 -72.7222 54° Northeast 510 587 33,000 300 Climbing Boston Center
12:54AM 40.8061 -72.5469 55° Northeast 521 600 33,000  Level Boston Center
12:55AM 40.8875 -72.3906 55° Northeast 521 600 33,000  Level Boston Center
12:56AM 40.9686 -72.2367 55° Northeast 516 594 33,000  Level Boston Center
12:57AM 41.0514 -72.0794 55° Northeast 516 594 33,000  Level Boston Center
12:58AM 41.1197 -71.9469 56° Northeast 521 600 33,000  Level Boston Center
12:59AM 41.2083 -71.7697 56° Northeast 521 600 33,000  Level Boston Center
01:00AM 41.2989 -71.5975 55° Northeast 521 600 33,000  Level Boston Center
01:01AM 41.3872 -71.4414 53° Northeast 515 593 33,000  Level Boston Center
01:02AM 41.4692 -71.2767 56° Northeast 522 601 33,000  Level Boston Center
01:03AM 41.5528 -71.1114 56° Northeast 527 606 33,000  Level Boston Center
01:04AM 41.6319 -70.9486 57° Northeast 527 606 33,000  Level Boston Center
01:05AM 41.7028 -70.7911 59° Northeast 534 615 33,000  Level Boston Center
01:06AM 41.7939 -70.6161 55° Northeast 527 606 33,000  Level Boston Center
01:07AM 41.8786 -70.4519 55° Northeast 527 606 33,000  Level Boston Center
01:08AM 41.9589 -70.2847 57° Northeast 527 606 33,000  Level Boston Center
01:09AM 42.0231 -70.1511 57° Northeast 527 606 33,000  Level Boston Center
01:10AM 42.1169 -69.9658 56° Northeast 538 619 33,000  Level Boston Center
01:11AM 42.1989 -69.8000 56° Northeast 539 620 33,000  Level Boston Center
01:12AM 42.2881 -69.6139 57° Northeast 534 615 33,000  Level Boston Center
01:13AM 42.3650 -69.4444 58° Northeast 534 615 33,000  Level Boston Center
01:14AM 42.4478 -69.2689 57° Northeast 540 621 33,000  Level Boston Center
01:15AM 42.5264 -69.1014 57° Northeast 540 621 33,000  Level Boston Center
01:16AM 42.5992 -68.9536 56° Northeast 530 610 33,000  Level Boston Center
01:17AM 42.6792 -68.7853 57° Northeast 530 610 33,000  Level Boston Center
01:18AM 42.7569 -68.6136 58° Northeast 535 616 33,000  Level Boston Center
01:19AM 42.8389 -68.4472 56° Northeast 535 616 33,000  Level Boston Center
01:20AM 42.9181 -68.2717 58° Northeast 535 616 33,000  Level Boston Center
01:21AM 42.9972 -68.1017 57° Northeast 535 616 33,000  Level Boston Center
01:22AM 43.0761 -67.9283 58° Northeast 540 621 33,000  Level Boston Center
01:23AM 43.1525 -67.7547 59° Northeast 540 621 33,000  Level Boston Center
01:24AM 43.2167 -67.5333 68° East 540 621 33,000  Level Moncton Center
01:25AM 43.3167 -67.3833 47° Northeast 540 621 33,000  Level Moncton Center
01:26AM 43.3833 -67.1833 65° Northeast 540 621 33,000  Level Moncton Center
01:27AM 43.4667 -67.0167 55° Northeast 540 621 33,000  Level Moncton Center
01:28AM 43.5333 -66.8333 63° Northeast 540 621 33,000  Level Moncton Center
01:29AM 43.6167 -66.6667 55° Northeast 540 621 33,000  Level Moncton Center
01:30AM 43.7000 -66.4833 58° Northeast 540 621 33,000  Level Moncton Center
01:31AM 43.7667 -66.3000 63° Northeast 540 621 33,000  Level Moncton Center
01:32AM 43.8500 -66.1333 55° Northeast 540 621 33,000  Level Moncton Center
01:33AM 43.9333 -65.9500 58° Northeast 540 621 33,000  Level Moncton Center
01:34AM 44.0000 -65.7667 63° Northeast 540 621 33,000  Level Moncton Center
01:35AM 44.0833 -65.5833 58° Northeast 540 621 33,000  Level Moncton Center
01:36AM 44.1500 -65.4000 63° Northeast 540 621 33,000  Level Moncton Center
01:37AM 44.2333 -65.2167 58° Northeast 540 621 33,000  Level Moncton Center
01:38AM 44.3000 -65.0500 61° Northeast 540 621 33,000  Level Moncton Center
01:39AM 44.3833 -64.8333 62° Northeast 540 621 33,000  Level Moncton Center
01:40AM 44.4500 -64.6833 58° Northeast 540 621 33,000  Level Moncton Center
01:41AM 44.5167 -64.4833 65° Northeast 540 621 33,000  Level Moncton Center
01:42AM 44.6000 -64.3000 57° Northeast 540 621 33,000  Level Moncton Center
01:43AM 44.6667 -64.1167 63° Northeast 540 621 33,000  Level Moncton Center
01:44AM 44.7333 -63.9500 61° Northeast 540 621 33,000  Level Moncton Center
01:45AM 44.8167 -63.7667 57° Northeast 540 621 33,000  Level Moncton Center
01:46AM 44.8833 -63.5667 65° Northeast 540 621 33,000  Level Moncton Center
01:47AM 44.9500 -63.4000 60° Northeast 540 621 33,000  Level Moncton Center
01:48AM 45.0333 -63.2167 57° Northeast 540 621 33,000  Level Moncton Center
01:49AM 45.1000 -63.0000 66° East 540 621 33,000  Level Moncton Center
01:50AM 45.1833 -62.8333 55° Northeast 540 621 33,000  Level Moncton Center
01:51AM 45.2500 -62.6167 66° East 550 633 33,000  Level Moncton Center
01:52AM 45.3167 -62.4500 60° Northeast 550 633 33,000  Level Moncton Center
01:53AM 45.4000 -62.2333 61° Northeast 550 633 33,000  Level Moncton Center
01:54AM 45.4667 -62.0333 65° Northeast 550 633 33,000  Level Moncton Center
01:55AM 45.5333 -61.8667 60° Northeast 560 644 33,000  Level Moncton Center
01:56AM 45.6000 -61.6500 66° East 550 633 33,000  Level Moncton Center
01:57AM 45.6667 -61.4500 64° Northeast 560 644 33,000  Level Moncton Center
01:58AM 45.7500 -61.2500 59° Northeast 560 644 33,000  Level Moncton Center
01:59AM 45.8333 -61.0667 57° Northeast 560 644 33,000  Level Moncton Center
02:00AM 45.8833 -60.8667 70° East 560 644 33,000  Level Moncton Center
02:01AM 45.9667 -60.6667 59° Northeast 560 644 33,000  Level Moncton Center
02:02AM 46.0167 -60.4667 70° East 560 644 33,000  Level Moncton Center
02:03AM 46.1000 -60.2500 61° Northeast 570 656 33,000  Level Moncton Center
02:04AM 46.1833 -60.0500 59° Northeast 560 644 33,000  Level Moncton Center
02:05AM 46.2333 -59.8500 70° East 560 644 33,000  Level Moncton Center
02:06AM 46.3167 -59.6500 59° Northeast 560 644 33,000  Level Moncton Center
02:07AM 46.3833 -59.4500 64° Northeast 560 644 33,000  Level Moncton Center
02:08AM 46.4500 -59.2167 67° East 570 656 33,000  Level Moncton Center
02:09AM 46.5167 -59.0167 64° Northeast 570 656 33,000  Level Moncton Center
02:10AM 46.5667 -58.8167 70° East 570 656 33,000  Level Moncton Center
02:11AM 46.6500 -58.5833 62° Northeast 570 656 33,000  Level Moncton Center
02:12AM 46.7167 -58.3833 64° Northeast 570 656 33,000  Level Moncton Center
02:13AM 46.8000 -58.1833 59° Northeast 580 667 33,000  Level Moncton Center
02:14AM 46.8500 -57.9833 70° East 570 656 33,000  Level Moncton Center
02:15AM 46.9167 -57.7500 67° East 580 667 33,000  Level Moncton Center
02:16AM 46.9833 -57.5500 64° Northeast 580 667 33,000  Level Moncton Center
02:17AM 47.0667 -57.3167 62° Northeast 580 667 33,000  Level Moncton Center
02:18AM 47.1167 -57.1167 70° East 590 679 33,000  Level Moncton Center
02:19AM 47.1833 -56.8833 67° East 580 667 33,000  Level Moncton Center
02:20AM 47.2500 -56.6667 66° East 590 679 33,000  Level Moncton Center
02:21AM 47.3167 -56.4333 67° East 590 679 33,000  Level Moncton Center
02:22AM 47.3833 -56.2333 64° Northeast 590 679 33,000  Level Moncton Center
02:23AM 47.4333 -56.0000 72° East 590 679 33,000  Level Moncton Center
02:24AM 47.5000 -55.7667 67° East 590 679 33,000  Level Moncton Center
02:25AM 47.5667 -55.5500 65° Northeast 590 679 33,000  Level Moncton Center
02:26AM 47.6333 -55.3333 65° Northeast 580 667 33,000  Level Moncton Center
02:28AM 47.7000 -55.0667 70° East 590 679 33,000  Level Gander Center
02:29AM 47.7833 -54.8333 62° Northeast 590 679 33,000  Level Gander Center
02:30AM 47.8333 -54.6000 72° East 590 679 33,000  Level Gander Center
02:31AM 47.9000 -54.3667 67° East 600 690 33,000  Level Gander Center
02:32AM 47.9500 -54.1667 69° East 600 690 33,000  Level Gander Center
02:33AM 48.0167 -53.9000 69° East 600 690 33,000  Level Gander Center
02:34AM 48.0667 -53.7000 69° East 590 679 33,000  Level Gander Center
02:35AM 48.1500 -53.4667 62° Northeast 600 690 33,000  Level Gander Center
02:36AM 48.2167 -53.2167 68° East 600 690 33,000  Level Gander Center
02:37AM 48.2667 -52.9833 72° East 600 690 33,000  Level Gander Center
02:37AM 48.3167 -52.7833 69° East 600 690 33,000  Level Moncton Center
02:38AM 48.3667 -52.5500 72° East 600 690 33,000  Level Moncton Center
02:39AM 48.4167 -52.3000 73° East 600 690 33,000  Level Moncton Center
02:40AM 48.4833 -52.0833 65° Northeast 600 690 33,000  Level Moncton Center
02:43AM 48.6000 -51.5833 70° East 590 679 33,000  Level Gander Center
02:44AM 48.6667 -51.3500 67° East 590 679 33,000  Level Gander Center
02:45AM 48.7167 -51.1000 73° East 590 679 33,000  Level Gander Center
02:46AM 48.7667 -50.8833 71° East 590 679 33,000  Level Gander Center
02:46AM 48.8167 -50.6667 71° East 590 679 33,000  Level Moncton Center
02:47AM 48.8500 -50.4500 77° East 590 679 33,000  Level Moncton Center
02:48AM 48.9000 -50.2167 72° East 580 667 33,000  Level Moncton Center
02:50AM 48.9667 -49.9500 69° East 580 667 33,000  Level Gander Center
02:51AM 49.0167 -49.7000 73° East 590 679 33,000  Level Gander Center
02:52AM 49.0833 -49.4833 65° Northeast 590 679 33,000  Level Gander Center
02:53AM 49.1333 -49.2333 73° East 590 679 33,000  Level Gander Center
02:54AM 49.1833 -49.0167 70° East 580 667 33,000  Level Gander Center
02:55AM 49.2500 -48.7667 68° East 580 667 33,000  Level Gander Center
02:56AM 49.3000 -48.5500 70° East 580 667 33,000  Level Gander Center
02:57AM 49.3500 -48.3000 73° East 580 667 33,000  Level Gander Center
02:58AM 49.4000 -48.0833 70° East 580 667 33,000  Level Gander Center
02:59AM 49.4667 -47.8667 65° Northeast 570 656 33,000  Level Gander Center
03:00AM 49.5167 -47.6333 72° East 570 656 33,000  Level Gander Center
03:01AM 49.5667 -47.4167 70° East 570 656 33,000  Level Gander Center
03:02AM 49.6167 -47.1833 72° East 580 667 33,000  Level Gander Center
03:04AM 49.7118 -46.7651 70° East  Level FlightAware Approximate
03:11AM 50.0303 -45.3009 71° East  Level FlightAware Approximate
03:12AM 50.0742 -45.0901 72° East  Level FlightAware Approximate
03:13AM 50.1178 -44.8790 72° East  Level FlightAware Approximate
03:14AM 50.1610 -44.6675 72° East  Level FlightAware Approximate
03:15AM 50.2039 -44.4556 72° East  Level FlightAware Approximate
03:16AM 50.2463 -44.2433 73° East  Level FlightAware Approximate
03:17AM 50.2884 -44.0307 73° East  Level FlightAware Approximate
03:18AM 50.3301 -43.8177 73° East  Level FlightAware Approximate
03:19AM 50.3713 -43.6043 73° East  Level FlightAware Approximate
03:20AM 50.4122 -43.3905 73° East  Level FlightAware Approximate
03:21AM 50.4527 -43.1764 73° East  Level FlightAware Approximate
03:22AM 50.4928 -42.9619 74° East  Level FlightAware Approximate
03:23AM 50.5325 -42.7470 74° East  Level FlightAware Approximate
03:24AM 50.5718 -42.5318 74° East  Level FlightAware Approximate
03:25AM 50.6107 -42.3162 74° East  Level FlightAware Approximate
03:26AM 50.6492 -42.1003 74° East  Level FlightAware Approximate
03:27AM 50.6874 -41.8840 74° East  Level FlightAware Approximate
03:28AM 50.7251 -41.6674 75° East  Level FlightAware Approximate
03:29AM 50.7624 -41.4504 75° East  Level FlightAware Approximate
03:30AM 50.7993 -41.2331 75° East  Level FlightAware Approximate
03:31AM 50.8358 -41.0154 75° East  Level FlightAware Approximate
03:32AM 50.8719 -40.7974 75° East  Level FlightAware Approximate
03:33AM 50.9076 -40.5791 75° East  Level FlightAware Approximate
03:34AM 50.9428 -40.3604 76° East  Level FlightAware Approximate
03:35AM 50.9777 -40.1414 76° East  Level FlightAware Approximate
03:36AM 51.0034 -39.9200 86° East  Level FlightAware Approximate
03:37AM 51.0127 -39.6943 86° East  Level FlightAware Approximate
03:38AM 51.0215 -39.4686 86° East  Level FlightAware Approximate
03:39AM 51.0299 -39.2428 87° East  Level FlightAware Approximate
03:40AM 51.0379 -39.0169 87° East  Level FlightAware Approximate
03:41AM 51.0455 -38.7909 87° East  Level FlightAware Approximate
03:42AM 51.0526 -38.5648 87° East  Level FlightAware Approximate
03:43AM 51.0592 -38.3387 87° East  Level FlightAware Approximate
03:44AM 51.0655 -38.1125 87° East  Level FlightAware Approximate
03:45AM 51.0713 -37.8863 88° East  Level FlightAware Approximate
03:46AM 51.0766 -37.6600 88° East  Level FlightAware Approximate
03:47AM 51.0815 -37.4337 88° East  Level FlightAware Approximate
03:48AM 51.0860 -37.2073 88° East  Level FlightAware Approximate
03:49AM 51.0901 -36.9809 88° East  Level FlightAware Approximate
03:50AM 51.0937 -36.7544 88° East  Level FlightAware Approximate
03:51AM 51.0968 -36.5279 89° East  Level FlightAware Approximate
03:52AM 51.0996 -36.3014 89° East  Level FlightAware Approximate
03:53AM 51.1019 -36.0748 89° East  Level FlightAware Approximate
03:54AM 51.1037 -35.8483 89° East  Level FlightAware Approximate
03:55AM 51.1051 -35.6217 89° East  Level FlightAware Approximate
03:56AM 51.1061 -35.3951 90° East  Level FlightAware Approximate
03:57AM 51.1067 -35.1685 90° East  Level FlightAware Approximate
03:58AM 51.1068 -34.9418 90° East  Level FlightAware Approximate
03:59AM 51.1064 -34.7152 90° East  Level FlightAware Approximate
04:00AM 51.1057 -34.4886 90° East  Level FlightAware Approximate
04:01AM 51.1045 -34.2621 90° East  Level FlightAware Approximate
04:02AM 51.1028 -34.0355 91° East  Level FlightAware Approximate
04:03AM 51.1007 -33.8089 91° East  Level FlightAware Approximate
04:04AM 51.0982 -33.5824 91° East  Level FlightAware Approximate
04:05AM 51.0953 -33.3559 91° East  Level FlightAware Approximate
04:06AM 51.0919 -33.1294 91° East  Level FlightAware Approximate
04:07AM 51.0880 -32.9029 91° East  Level FlightAware Approximate
04:08AM 51.0838 -32.6765 92° East  Level FlightAware Approximate
04:09AM 51.0790 -32.4502 92° East  Level FlightAware Approximate
04:10AM 51.0739 -32.2239 92° East  Level FlightAware Approximate
04:11AM 51.0683 -31.9976 92° East  Level FlightAware Approximate
04:12AM 51.0623 -31.7714 92° East  Level FlightAware Approximate
04:13AM 51.0559 -31.5452 93° East  Level FlightAware Approximate
04:14AM 51.0490 -31.3192 93° East  Level FlightAware Approximate
04:15AM 51.0417 -31.0954 93° East  Level FlightAware Approximate
04:16AM 51.0340 -30.8718 93° East  Level FlightAware Approximate
04:17AM 51.0259 -30.6482 93° East  Level FlightAware Approximate
04:18AM 51.0174 -30.4247 93° East  Level FlightAware Approximate
04:19AM 51.0084 -30.2013 94° East  Level FlightAware Approximate
04:20AM 51.0009 -29.9780 86° East  Level FlightAware Approximate
04:21AM 51.0102 -29.7546 86° East  Level FlightAware Approximate
04:22AM 51.0191 -29.5312 86° East  Level FlightAware Approximate
04:23AM 51.0276 -29.3077 86° East  Level FlightAware Approximate
04:24AM 51.0356 -29.0841 87° East  Level FlightAware Approximate
04:25AM 51.0432 -28.8604 87° East  Level FlightAware Approximate
04:26AM 51.0503 -28.6367 87° East  Level FlightAware Approximate
04:27AM 51.0571 -28.4129 87° East  Level FlightAware Approximate
04:28AM 51.0634 -28.1890 87° East  Level FlightAware Approximate
04:29AM 51.0693 -27.9651 88° East  Level FlightAware Approximate
04:30AM 51.0747 -27.7411 88° East  Level FlightAware Approximate
04:31AM 51.0798 -27.5171 88° East  Level FlightAware Approximate
04:32AM 51.0844 -27.2930 88° East  Level FlightAware Approximate
04:33AM 51.0885 -27.0689 88° East  Level FlightAware Approximate
04:34AM 51.0923 -26.8447 88° East  Level FlightAware Approximate
04:35AM 51.0956 -26.6205 89° East  Level FlightAware Approximate
04:36AM 51.0985 -26.3963 89° East  Level FlightAware Approximate
04:37AM 51.1009 -26.1721 89° East  Level FlightAware Approximate
04:38AM 51.1030 -25.9478 89° East  Level FlightAware Approximate
04:39AM 51.1046 -25.7235 89° East  Level FlightAware Approximate
04:40AM 51.1057 -25.4992 89° East  Level FlightAware Approximate
04:41AM 51.1065 -25.2749 90° East  Level FlightAware Approximate
04:42AM 51.1068 -25.0506 90° East  Level FlightAware Approximate
04:43AM 51.1067 -24.8263 90° East  Level FlightAware Approximate
04:44AM 51.1061 -24.6019 90° East  Level FlightAware Approximate
04:45AM 51.1051 -24.3776 90° East  Level FlightAware Approximate
04:46AM 51.1037 -24.1533 90° East  Level FlightAware Approximate
04:47AM 51.1019 -23.9291 91° East  Level FlightAware Approximate
04:48AM 51.0996 -23.7048 91° East  Level FlightAware Approximate
04:49AM 51.0970 -23.4806 91° East  Level FlightAware Approximate
04:50AM 51.0938 -23.2563 91° East  Level FlightAware Approximate
04:51AM 51.0903 -23.0322 91° East  Level FlightAware Approximate
04:52AM 51.0863 -22.8080 92° East  Level FlightAware Approximate
04:53AM 51.0819 -22.5839 92° East  Level FlightAware Approximate
04:54AM 51.0770 -22.3599 92° East  Level FlightAware Approximate
04:55AM 51.0718 -22.1359 92° East  Level FlightAware Approximate
04:56AM 51.0661 -21.9119 92° East  Level FlightAware Approximate
04:57AM 51.0600 -21.6880 92° East  Level FlightAware Approximate
04:58AM 51.0534 -21.4637 93° East  Level FlightAware Approximate
04:59AM 51.0464 -21.2394 93° East  Level FlightAware Approximate
05:00AM 51.0390 -21.0152 93° East  Level FlightAware Approximate
05:01AM 51.0312 -20.7911 93° East  Level FlightAware Approximate
05:02AM 51.0229 -20.5671 93° East  Level FlightAware Approximate
05:03AM 51.0142 -20.3431 93° East  Level FlightAware Approximate
05:04AM 51.0050 -20.1193 94° East  Level FlightAware Approximate
05:05AM 50.9967 -19.8954 93° East  Level FlightAware Approximate
05:06AM 50.9894 -19.6714 93° East  Level FlightAware Approximate
05:07AM 50.9817 -19.4475 93° East  Level FlightAware Approximate
05:08AM 50.9735 -19.2237 93° East  Level FlightAware Approximate
05:09AM 50.9649 -19.0000 93° East  Level FlightAware Approximate
05:10AM 50.9559 -18.7763 94° East  Level FlightAware Approximate
05:11AM 50.9464 -18.5528 94° East  Level FlightAware Approximate
05:12AM 50.9366 -18.3293 94° East  Level FlightAware Approximate
05:13AM 50.9263 -18.1059 94° East  Level FlightAware Approximate
05:14AM 50.9156 -17.8827 94° East  Level FlightAware Approximate
05:15AM 50.9044 -17.6595 94° East  Level FlightAware Approximate
05:16AM 50.8928 -17.4364 95° East  Level FlightAware Approximate
05:17AM 50.8808 -17.2135 95° East  Level FlightAware Approximate
05:18AM 50.8684 -16.9907 95° East  Level FlightAware Approximate
05:19AM 50.8555 -16.7680 95° East  Level FlightAware Approximate
05:20AM 50.8423 -16.5454 95° East  Level FlightAware Approximate
05:21AM 50.8286 -16.3230 95° East  Level FlightAware Approximate
05:22AM 50.8144 -16.1006 96° East  Level FlightAware Approximate
05:23AM 50.7999 -15.8785 96° East  Level FlightAware Approximate
05:24AM 50.7850 -15.6564 96° East  Level FlightAware Approximate
05:25AM 50.7696 -15.4345 96° East  Level FlightAware Approximate
05:26AM 50.7538 -15.2128 96° East  Level FlightAware Approximate
05:27AM 50.7375 -14.9912 97° East  Level FlightAware Approximate
05:28AM 50.7209 -14.7697 97° East  Level FlightAware Approximate
05:29AM 50.7038 -14.5485 97° East  Level FlightAware Approximate
05:30AM 50.6864 -14.3273 97° East  Level FlightAware Approximate
05:31AM 50.6685 -14.1064 97° East  Level FlightAware Approximate
05:32AM 50.6501 -13.8856 97° East  Level FlightAware Approximate
05:33AM 50.6314 -13.6650 98° East  Level FlightAware Approximate
05:34AM 50.6123 -13.4446 98° East  Level FlightAware Approximate
05:35AM 50.5927 -13.2243 98° East  Level FlightAware Approximate
05:36AM 50.5727 -13.0042 98° East  Level FlightAware Approximate
05:37AM 50.5523 -12.7844 98° East  Level FlightAware Approximate
05:38AM 50.5315 -12.5647 98° East  Level FlightAware Approximate
05:39AM 50.5103 -12.3452 99° East  Level FlightAware Approximate
05:40AM 50.4887 -12.1259 99° East  Level FlightAware Approximate
05:41AM 50.4666 -11.9068 99° East  Level FlightAware Approximate
05:42AM 50.4441 -11.6879 99° East  Level FlightAware Approximate
05:43AM 50.4213 -11.4693 99° East  Level FlightAware Approximate
05:44AM 50.3980 -11.2508 99° East  Level FlightAware Approximate
05:45AM 50.3743 -11.0326 100° East  Level FlightAware Approximate
05:46AM 50.3502 -10.8146 100° East  Level FlightAware Approximate
05:47AM 50.3257 -10.5968 100° East  Level FlightAware Approximate
05:48AM 50.3008 -10.3792 100° East  Level FlightAware Approximate
05:49AM 50.2755 -10.1618 100° East  Level FlightAware Approximate
05:49AM 50.3636 -8.9744 100° East 460 529 37,000  Level FlightAware UK
05:49AM 50.3511 -8.8766 101° East 458 527 37,000  Level FlightAware UK
05:50AM 50.3386 -8.7788 101° East 458 527 37,000  Level FlightAware UK
05:50AM 50.3259 -8.6812 101° East 456 525 37,000  Level FlightAware UK
05:51AM 50.3130 -8.5839 102° East 456 525 37,000  Level FlightAware UK
05:51AM 50.3000 -8.4867 102° East 454 522 37,000  Level FlightAware UK
05:52AM 50.2873 -8.3894 102° East 458 527 37,000  Level FlightAware UK
05:52AM 50.2744 -8.2925 102° East 456 525 37,000  Level FlightAware UK
05:53AM 50.2613 -8.1962 102° East 456 525 37,000  Level FlightAware UK
05:53AM 50.2481 -8.0998 102° East 458 527 37,000  Level FlightAware UK
05:54AM 50.2350 -8.0045 102° East 452 520 37,000  Level FlightAware UK
05:54AM 50.2218 -7.9098 102° East 458 527 37,000  Level FlightAware UK
05:55AM 50.2087 -7.8155 102° East 454 522 37,000  Level FlightAware UK
05:55AM 50.1958 -7.7213 102° East 446 513 37,000  Level FlightAware UK
05:56AM 50.1827 -7.6275 102° East 450 518 37,000  Level FlightAware UK
05:56AM 50.1693 -7.5341 103° East 446 513 37,000  Level FlightAware UK
05:57AM 50.1559 -7.4409 103° East 440 506 37,000  Level FlightAware UK
05:57AM 50.1426 -7.3479 103° East 438 504 37,000  Level FlightAware UK
05:58AM 50.1293 -7.2549 103° East 438 504 37,000  Level FlightAware UK
05:58AM 50.1160 -7.1618 103° East 438 504 37,000  Level FlightAware UK
05:59AM 50.1025 -7.0682 103° East 446 513 37,000  Level FlightAware UK
05:59AM 50.0887 -6.9735 103° East 452 520 37,000  Level FlightAware UK
06:00AM 50.0748 -6.8791 103° East 452 520 37,000  Level FlightAware UK
06:00AM 50.0605 -6.7845 103° East 454 522 37,000  Level FlightAware UK
06:01AM 50.0465 -6.6897 103° East 456 525 37,000  Level FlightAware UK
06:01AM 50.0323 -6.5950 103° East 448 516 37,000  Level FlightAware UK
06:02AM 50.0121 -6.4631 103° East 450 518 37,000  Level FlightAware UK
06:03AM 49.9978 -6.3688 103° East 458 527 37,000  Level FlightAware UK
06:03AM 49.9832 -6.2743 104° East 450 518 37,000  Level FlightAware UK
06:04AM 49.9687 -6.1797 103° East 452 520 37,000  Level FlightAware UK
06:04AM 49.9541 -6.0851 103° East 450 518 37,000  Level FlightAware UK
06:05AM 49.9395 -5.9901 103° East 452 520 37,000  Level FlightAware UK
06:05AM 49.9246 -5.8960 104° East 452 520 37,000  Level FlightAware UK
06:06AM 49.9099 -5.8018 104° East 460 529 37,000  Level FlightAware UK
06:06AM 49.8948 -5.7078 104° East 458 527 37,000  Level FlightAware UK
06:07AM 49.8799 -5.6140 104° East 466 536 37,000  Level FlightAware UK
06:07AM 49.8647 -5.5205 104° East 462 532 37,000  Level FlightAware UK
06:08AM 49.8497 -5.4273 104° East 458 527 37,000  Level FlightAware UK
06:08AM 49.8346 -5.3346 104° East 464 534 37,000  Level FlightAware UK
06:09AM 49.8164 -5.2241 104° East 464 534 37,000  Level FlightAware UK
06:10AM 49.7893 -5.0598 104° East 464 534 37,000  Level FlightAware UK
06:10AM 49.7713 -4.9517 104° East 458 527 37,000  Level FlightAware UK
06:11AM 49.7564 -4.8624 105° East 452 520 37,000  Level FlightAware UK
06:11AM 49.7385 -4.7563 105° East 454 522 37,000  Level FlightAware UK
06:12AM 49.7234 -4.6678 105° East 450 518 37,000  Level FlightAware UK
06:12AM 49.7076 -4.5441 101° East 448 516 37,000  Level FlightAware UK
06:13AM 49.6896 -4.3663 99° East 452 520 37,000  Level FlightAware UK
06:14AM 49.6807 -4.2776 99° East 454 522 37,000  Level FlightAware UK
06:14AM 49.6716 -4.1886 99° East 452 520 37,000  Level FlightAware UK
06:15AM 49.6626 -4.1002 99° East 448 516 37,000  Level FlightAware UK
06:16AM 49.6500 -3.9766 99° East 448 516 37,000  Level FlightAware UK
06:17AM 49.6404 -3.8156 95° East 452 520 37,000  Level FlightAware UK
06:17AM 49.6327 -3.6900 95° East 450 518 37,000  Level FlightAware UK
06:18AM 49.6261 -3.5814 95° East 450 518 37,000  Level FlightAware UK
06:19AM 49.6166 -3.4364 96° East 456 525 37,000  Level FlightAware UK
06:19AM 49.6105 -3.3443 96° East 460 529 37,000  Level FlightAware UK
06:20AM 49.6044 -3.2527 96° East 460 529 37,000  Level FlightAware UK
06:20AM 49.5982 -3.1610 96° East 460 529 37,000  Level FlightAware UK
06:22AM 49.5804 -2.9027 96° East 462 532 37,000  Level FlightAware UK
06:22AM 49.5727 -2.7916 96° East 460 529 37,000  Level FlightAware UK
06:23AM 49.5632 -2.6613 96° East 462 532 37,000  Level FlightAware UK
06:23AM 49.5554 -2.5496 96° East 470 541 37,000  Level FlightAware UK
06:24AM 49.5441 -2.4000 97° East 466 536 37,000 -60 Level FlightAware UK
06:30AM 49.4526 -1.2432 97° East 458 527 36,600 -180 Descending FlightAware UK
06:31AM 49.4423 -1.1197 97° East 454 522 36,000 -840 Descending FlightAware UK
06:32AM 49.4319 -0.9991 97° East 444 511 35,500 -780 Descending FlightAware UK
06:32AM 49.4232 -0.8999 98° East 446 513 35,000 -1,200 Descending FlightAware UK
06:33AM 49.4159 -0.8199 98° East 450 518 34,200 -1,800 Descending FlightAware UK
06:33AM 49.4093 -0.7424 97° East 462 532 33,200 -2,040 Descending FlightAware UK
06:34AM 49.4011 -0.6511 98° East 450 518 32,000 -2,280 Descending FlightAware UK
06:35AM 49.3946 -0.5766 98° East 444 511 30,700 -2,340 Descending FlightAware UK
06:35AM 49.3865 -0.4879 98° East 438 504 29,400 -1,680 Descending FlightAware UK
06:36AM 49.3729 -0.3444 98° East 428 493 28,000 -1,020 Descending FlightAware UK
06:37AM 49.3620 -0.2242 98° East 428 493 27,600 -1,680 Descending FlightAware UK
06:38AM 49.3601 -0.1315 92° East 418 481 25,700 -2,220 Descending FlightAware UK
06:38AM 49.3585 -0.0374 91° East 410 472 25,000 -660 Descending FlightAware UK
06:39AM 49.3562 0.0388 93° East 402 463 25,000  Level FlightAware UK
06:39AM 49.3527 0.1294 93° East 404 465 25,000  Level FlightAware UK
06:40AM 49.3497 0.2062 93° East 408 470 25,000 -600 Level FlightAware UK
06:40AM 49.3466 0.2983 93° East 402 463 24,400 -1,260 Descending FlightAware UK
06:41AM 49.3416 0.4499 93° East 392 451 23,000 -960 Descending FlightAware UK
06:42AM 49.3392 0.5236 93° East 392 451 23,000  Level FlightAware UK
06:43AM 49.3358 0.6282 93° East 398 458 23,000  Level FlightAware UK
06:43AM 49.3323 0.7340 93° East 396 456 23,000 -300 Level FlightAware UK
06:44AM 49.3297 0.8096 93° East 394 453 22,700 -1,020 Descending FlightAware UK
06:44AM 49.3270 0.8844 93° East 392 451 22,000 -1,380 Descending FlightAware UK
06:45AM 49.3221 1.0182 93° East 384 442 20,800 -1,380 Descending FlightAware UK
06:46AM 49.3182 1.1215 93° East 376 433 19,800 -1,860 Descending FlightAware UK
06:46AM 49.3157 1.1956 93° East 372 428 18,600 -2,280 Descending FlightAware UK
06:47AM 49.3120 1.2835 94° East 370 426 17,300 -2,280 Descending FlightAware UK
06:48AM 49.3080 1.3561 95° East 358 412 16,100 -2,640 Descending FlightAware UK
06:48AM 49.3039 1.4264 95° East 352 405 14,700 -2,640 Descending FlightAware UK
06:49AM 49.2996 1.4959 95° East 348 400 13,500 -2,220 Descending FlightAware UK
06:49AM 49.2953 1.5641 96° East 346 398 12,500 -1,500 Descending FlightAware UK
06:50AM 49.2897 1.6326 97° East 336 387 12,000 -540 Descending FlightAware UK
06:50AM 49.2840 1.7013 97° East 334 384 12,000 -300 Level FlightAware UK
06:51AM 49.2784 1.7698 97° East 332 382 11,700 -780 Descending FlightAware UK
06:51AM 49.2763 1.8770 92° East 326 375 11,000 -540 Descending FlightAware UK
06:52AM 49.2752 1.9601 91° East 330 380 11,000  Level FlightAware UK
06:53AM 49.2724 2.0426 93° East 330 380 11,000  Level FlightAware UK
06:53AM 49.2703 2.1115 93° East 326 375 11,000  Level FlightAware UK
06:54AM 49.2670 2.1933 93° East 322 371 11,000  Level FlightAware UK
06:55AM 49.2585 2.3825 94° East 262 302 11,000  Level FlightAware UK
06:57AM 49.1059 2.4867 156° South  Level Estimated
07:04AM 49.0128 2.5500 156° South  Level Estimated
07:05AM 49.0128 2.5500 180° South  Level Estimated
07:06AM 49.0128 2.5500 180° South  Level Estimated
07:07AM 49.0128 2.5500 180° South  Level Estimated
07:08AM 49.0128 2.5500 180° South  Level Estimated
07:09AM 49.0128 2.5500 180° South  Level Estimated
07:10AM 49.0128 2.5500 180° South  Level Estimated
07:11AM 49.0128 2.5500 180° South  Level Estimated
07:12AM 49.0128 2.5500 180° South  Level Estimated